Time;durP1;ratioP1;P1;durP2;ratioP2;P2;SDS_P1;SDS_P2;PMS_P1;PMS_P2;Temp;Humidity;BMP_temperature;BMP_pressure;BME280_temperature;BME280_humidity;BME280_pressure;Samples;Min_cycle;Max_cycle;Signal;HPM_P1;HPM_P2
2021/05/24 00:00:19;;;;;;;9.73;7.00;;;;;;;;;;5106285;28;20415;-82
2021/05/24 00:02:45;;;;;;;7.43;6.72;;;;;;;;;;5111583;27;20438;-83
2021/05/24 00:05:13;;;;;;;7.60;6.55;;;;;;;;;;5132646;27;20349;-81
2021/05/24 00:07:39;;;;;;;8.10;6.95;;;;;;;;;;5132137;27;20493;-86
2021/05/24 00:10:06;;;;;;;7.78;6.97;;;;;;;;;;5113679;27;20434;-82
2021/05/24 00:12:31;;;;;;;8.93;6.97;;;;;;;;;;5113893;27;20397;-82
2021/05/24 00:14:58;;;;;;;8.82;7.95;;;;;;;;;;5131584;27;20372;-84
2021/05/24 00:17:24;;;;;;;10.50;9.40;;;;;;;;;;5131736;27;20464;-85
2021/05/24 00:19:50;;;;;;;13.38;12.07;;;;;;;;;;5132439;27;20925;-83
2021/05/24 00:22:16;;;;;;;12.68;11.38;;;;;;;;;;5131913;27;20382;-86
2021/05/24 00:24:42;;;;;;;11.57;10.48;;;;;;;;;;5131917;27;20395;-83
2021/05/24 00:27:08;;;;;;;14.77;13.38;;;;;;;;;;5131808;27;20927;-83
2021/05/24 00:29:34;;;;;;;12.73;11.43;;;;;;;;;;5113642;27;20472;-81
2021/05/24 00:32:01;;;;;;;16.55;12.45;;;;;;;;;;5113722;27;20882;-86
2021/05/24 00:34:27;;;;;;;15.25;13.05;;;;;;;;;;5131846;27;20401;-88
2021/05/24 00:36:55;;;;;;;12.48;11.13;;;;;;;;;;5113706;27;20421;-80
2021/05/24 00:39:21;;;;;;;11.35;10.18;;;;;;;;;;5113596;27;20437;-81
2021/05/24 00:41:47;;;;;;;16.25;11.93;;;;;;;;;;5097480;28;20374;-82
2021/05/24 00:44:13;;;;;;;12.05;10.35;;;;;;;;;;5092353;28;20382;-88
2021/05/24 00:46:39;;;;;;;14.67;11.77;;;;;;;;;;5092033;28;20371;-85
2021/05/24 00:49:05;;;;;;;27.40;24.77;;;;;;;;;;5092269;28;20886;-82
2021/05/24 00:51:32;;;;;;;21.35;19.30;;;;;;;;;;5091752;28;20402;-86
2021/05/24 00:53:58;;;;;;;17.80;16.20;;;;;;;;;;5091607;28;20409;-83
2021/05/24 00:56:25;;;;;;;15.68;14.20;;;;;;;;;;5091158;28;20378;-83
2021/05/24 00:58:51;;;;;;;16.73;15.13;;;;;;;;;;5091704;28;20382;-83
2021/05/24 01:01:17;;;;;;;17.38;15.73;;;;;;;;;;5109650;28;20363;-84
2021/05/24 01:03:43;;;;;;;17.00;15.50;;;;;;;;;;5109631;28;20847;-82
2021/05/24 01:06:09;;;;;;;14.80;13.30;;;;;;;;;;5091524;28;20432;-84
2021/05/24 01:08:35;;;;;;;17.35;15.55;;;;;;;;;;5092487;28;20959;-86
2021/05/24 01:11:01;;;;;;;15.15;13.13;;;;;;;;;;5110174;28;20407;-84
2021/05/24 01:13:27;;;;;;;13.60;12.27;;;;;;;;;;5110494;28;20452;-82
2021/05/24 01:15:53;;;;;;;14.68;13.15;;;;;;;;;;5110316;28;20427;-86
2021/05/24 01:18:19;;;;;;;12.88;11.48;;;;;;;;;;5092038;28;20390;-82
2021/05/24 01:20:45;;;;;;;13.07;10.80;;;;;;;;;;5091990;28;20366;-86
2021/05/24 01:23:14;;;;;;;11.35;10.15;;;;;;;;;;5110385;28;20370;-84
2021/05/24 01:25:45;;;;;;;12.13;10.60;;;;;;;;;;5110137;28;20425;-87
2021/05/24 01:28:12;;;;;;;13.52;12.15;;;;;;;;;;5092198;28;20374;-80
2021/05/24 01:30:39;;;;;;;24.33;22.08;;;;;;;;;;5110785;28;20379;-85
2021/05/24 01:33:05;;;;;;;31.53;28.43;;;;;;;;;;5092817;28;20436;-85
2021/05/24 01:35:31;;;;;;;17.73;16.02;;;;;;;;;;5110413;28;20509;-83
2021/05/24 01:37:58;;;;;;;15.80;14.30;;;;;;;;;;5091809;28;20371;-87
2021/05/24 01:40:25;;;;;;;13.47;12.07;;;;;;;;;;5091706;28;20458;-85
2021/05/24 01:42:56;;;;;;;10.73;9.63;;;;;;;;;;5091724;28;20759;-85
2021/05/24 01:45:22;;;;;;;10.85;9.75;;;;;;;;;;5109743;28;20367;-86
2021/05/24 01:47:48;;;;;;;10.60;9.10;;;;;;;;;;5091738;28;20374;-87
2021/05/24 01:50:14;;;;;;;10.13;9.18;;;;;;;;;;5109606;28;20371;-86
2021/05/24 01:52:41;;;;;;;9.07;7.53;;;;;;;;;;5109545;28;20456;-85
2021/05/24 01:55:07;;;;;;;8.68;7.93;;;;;;;;;;5109994;28;20374;-86
2021/05/24 01:57:33;;;;;;;9.63;8.18;;;;;;;;;;5091371;28;20367;-85
2021/05/24 01:59:59;;;;;;;8.57;7.68;;;;;;;;;;5091731;28;20374;-83
2021/05/24 02:02:26;;;;;;;8.63;7.73;;;;;;;;;;5109544;28;20370;-84
2021/05/24 02:04:52;;;;;;;8.98;8.05;;;;;;;;;;5109798;28;20363;-83
2021/05/24 02:07:18;;;;;;;9.32;7.82;;;;;;;;;;5091506;28;20911;-81
2021/05/24 02:09:44;;;;;;;8.35;7.53;;;;;;;;;;5109386;28;20363;-81
2021/05/24 02:12:10;;;;;;;8.10;7.32;;;;;;;;;;5091422;28;20398;-88
2021/05/24 02:14:36;;;;;;;9.77;8.00;;;;;;;;;;5109308;28;20852;-85
2021/05/24 02:17:02;;;;;;;7.20;6.50;;;;;;;;;;5109660;28;20845;-85
2021/05/24 02:19:28;;;;;;;8.18;7.10;;;;;;;;;;5090770;28;20481;-86
2021/05/24 02:21:54;;;;;;;7.72;6.93;;;;;;;;;;5109496;28;20366;-83
2021/05/24 02:24:20;;;;;;;7.70;7.00;;;;;;;;;;5109570;28;20794;-84
2021/05/24 02:26:46;;;;;;;8.37;7.53;;;;;;;;;;5109312;28;20412;-83
2021/05/24 02:29:12;;;;;;;8.57;7.53;;;;;;;;;;5109658;28;20458;-83
2021/05/24 02:31:39;;;;;;;8.13;7.32;;;;;;;;;;5109408;28;20429;-84
2021/05/24 02:34:06;;;;;;;9.05;8.20;;;;;;;;;;5109573;28;20394;-86
2021/05/24 02:36:33;;;;;;;10.20;8.68;;;;;;;;;;5091393;28;20383;-84
2021/05/24 02:39:00;;;;;;;13.18;10.32;;;;;;;;;;5092445;28;20375;-83
2021/05/24 02:41:26;;;;;;;10.30;9.27;;;;;;;;;;5113466;28;20415;-80
2021/05/24 02:43:52;;;;;;;12.27;9.73;;;;;;;;;;5113304;28;20374;-84
2021/05/24 02:46:18;;;;;;;11.15;10.05;;;;;;;;;;5113222;28;20371;-81
2021/05/24 02:48:44;;;;;;;11.32;9.15;;;;;;;;;;5094968;28;20868;-84
2021/05/24 02:51:10;;;;;;;9.47;8.47;;;;;;;;;;5094949;28;20421;-84
2021/05/24 02:53:36;;;;;;;10.17;9.07;;;;;;;;;;5113048;28;20481;-84
2021/05/24 02:56:02;;;;;;;9.88;8.88;;;;;;;;;;5113106;28;20780;-85
2021/05/24 02:58:28;;;;;;;8.82;8.02;;;;;;;;;;5094446;28;20896;-86
2021/05/24 03:00:54;;;;;;;10.05;8.38;;;;;;;;;;5095090;28;20468;-82
2021/05/24 03:03:22;;;;;;;8.82;7.93;;;;;;;;;;5112831;28;20424;-80
2021/05/24 03:05:48;;;;;;;9.90;8.32;;;;;;;;;;5094716;28;20425;-83
2021/05/24 03:08:14;;;;;;;9.38;8.30;;;;;;;;;;5094900;28;20363;-81
2021/05/24 03:10:41;;;;;;;9.45;8.27;;;;;;;;;;5094337;28;20416;-86
2021/05/24 03:13:08;;;;;;;11.80;9.27;;;;;;;;;;5112787;28;20424;-86
2021/05/24 03:15:34;;;;;;;9.60;8.60;;;;;;;;;;5094656;28;20370;-84
2021/05/24 03:18:00;;;;;;;10.02;7.93;;;;;;;;;;5114359;28;20705;-79
2021/05/24 03:20:26;;;;;;;8.55;7.70;;;;;;;;;;5116019;28;20367;-81
2021/05/24 03:22:52;;;;;;;10.07;9.07;;;;;;;;;;5098997;28;20439;-86
2021/05/24 03:25:18;;;;;;;10.10;9.00;;;;;;;;;;5098984;28;20375;-86
2021/05/24 03:27:45;;;;;;;8.88;7.97;;;;;;;;;;5112485;28;20367;-84
2021/05/24 03:30:11;;;;;;;7.85;7.15;;;;;;;;;;5112642;28;20367;-83
2021/05/24 03:32:37;;;;;;;10.68;8.90;;;;;;;;;;5112213;28;20401;-85
2021/05/24 03:35:04;;;;;;;10.35;9.25;;;;;;;;;;5112450;28;20374;-85
2021/05/24 03:37:30;;;;;;;8.60;7.80;;;;;;;;;;5094159;28;20436;-86
2021/05/24 03:39:56;;;;;;;8.47;7.67;;;;;;;;;;5094018;28;20375;-86
2021/05/24 03:42:22;;;;;;;9.65;8.65;;;;;;;;;;5112309;28;20416;-88
2021/05/24 03:44:48;;;;;;;9.68;8.70;;;;;;;;;;5112019;28;20367;-81
2021/05/24 03:47:14;;;;;;;8.70;7.80;;;;;;;;;;5112037;28;20397;-89
2021/05/24 03:49:45;;;;;;;9.13;8.23;;;;;;;;;;5093782;28;20370;-88
2021/05/24 03:52:11;;;;;;;9.02;8.13;;;;;;;;;;5094233;28;20402;-85
2021/05/24 03:54:37;;;;;;;7.85;7.15;;;;;;;;;;5111955;28;20370;-84
2021/05/24 03:57:03;;;;;;;7.88;7.18;;;;;;;;;;5111387;28;20367;-80
2021/05/24 03:59:29;;;;;;;8.30;7.50;;;;;;;;;;5093947;28;20467;-86
2021/05/24 04:01:55;;;;;;;8.83;7.97;;;;;;;;;;5112120;28;20495;-87
2021/05/24 04:04:21;;;;;;;10.20;8.15;;;;;;;;;;5093721;28;20372;-84
2021/05/24 04:06:51;;;;;;;7.97;7.25;;;;;;;;;;5111935;28;20512;-86
2021/05/24 04:09:17;;;;;;;7.50;6.80;;;;;;;;;;5093608;28;20378;-87
2021/05/24 04:11:43;;;;;;;7.75;7.00;;;;;;;;;;5093225;28;20386;-89
2021/05/24 04:14:09;;;;;;;7.30;6.60;;;;;;;;;;5093429;28;20402;-86
2021/05/24 04:16:35;;;;;;;7.28;6.68;;;;;;;;;;5093061;28;20370;-85
2021/05/24 04:19:06;;;;;;;9.35;7.05;;;;;;;;;;5111350;28;20508;-85
2021/05/24 04:21:32;;;;;;;7.18;6.15;;;;;;;;;;5093146;28;20389;-84
2021/05/24 04:23:58;;;;;;;7.22;6.50;;;;;;;;;;5111579;28;20450;-87
2021/05/24 04:26:24;;;;;;;7.20;6.50;;;;;;;;;;5111614;28;20458;-84
2021/05/24 04:28:50;;;;;;;7.73;7.03;;;;;;;;;;5093190;28;20434;-86
2021/05/24 04:31:16;;;;;;;7.63;6.83;;;;;;;;;;5093480;28;20702;-87
2021/05/24 04:33:42;;;;;;;8.93;8.03;;;;;;;;;;5111463;28;20398;-86
2021/05/24 04:36:08;;;;;;;8.37;7.13;;;;;;;;;;5111317;28;20399;-87
2021/05/24 04:38:34;;;;;;;6.27;5.03;;;;;;;;;;5111543;28;20367;-82
2021/05/24 04:41:00;;;;;;;6.70;5.05;;;;;;;;;;5093007;28;20369;-87
2021/05/24 04:43:29;;;;;;;5.10;4.18;;;;;;;;;;5110927;28;20366;-89
2021/05/24 04:45:55;;;;;;;4.57;3.80;;;;;;;;;;5092532;28;20379;-83
2021/05/24 04:48:21;;;;;;;4.65;3.75;;;;;;;;;;5092631;28;20450;-86
2021/05/24 04:50:47;;;;;;;5.18;3.90;;;;;;;;;;5092934;28;20462;-84
2021/05/24 04:53:13;;;;;;;4.33;3.43;;;;;;;;;;5111330;28;20440;-85
2021/05/24 04:55:39;;;;;;;4.33;3.20;;;;;;;;;;5110724;28;20401;-84
2021/05/24 04:58:06;;;;;;;4.10;3.70;;;;;;;;;;5110782;28;20446;-84
2021/05/24 05:00:33;;;;;;;4.95;3.47;;;;;;;;;;5110873;28;20832;-84
2021/05/24 05:02:59;;;;;;;3.43;3.13;;;;;;;;;;5092615;28;20377;-83
2021/05/24 05:05:26;;;;;;;3.35;3.05;;;;;;;;;;5110974;28;20367;-87
2021/05/24 05:07:52;;;;;;;3.63;2.95;;;;;;;;;;5110943;28;20371;-86
2021/05/24 05:10:18;;;;;;;3.07;2.73;;;;;;;;;;5110182;28;20359;-84
2021/05/24 05:12:44;;;;;;;3.50;2.95;;;;;;;;;;5110309;28;20532;-82
2021/05/24 05:15:10;;;;;;;4.43;3.35;;;;;;;;;;5110891;28;20454;-81
2021/05/24 05:17:36;;;;;;;3.88;3.03;;;;;;;;;;5092400;28;20366;-84
2021/05/24 05:20:03;;;;;;;3.00;2.70;;;;;;;;;;5091959;28;20741;-87
2021/05/24 05:22:29;;;;;;;3.93;2.70;;;;;;;;;;5110339;28;20787;-86
2021/05/24 05:24:55;;;;;;;4.57;3.10;;;;;;;;;;5092323;28;20938;-86
2021/05/24 05:27:21;;;;;;;6.10;2.77;;;;;;;;;;5109863;28;20744;-86
2021/05/24 05:29:47;;;;;;;3.90;2.50;;;;;;;;;;5110239;28;20371;-85
2021/05/24 05:32:14;;;;;;;3.50;3.05;;;;;;;;;;5092180;28;20395;-82
2021/05/24 05:34:39;;;;;;;4.85;3.00;;;;;;;;;;5110083;28;20375;-83
2021/05/24 05:37:05;;;;;;;3.25;2.60;;;;;;;;;;5092241;28;20869;-89
2021/05/24 05:39:32;;;;;;;2.63;2.35;;;;;;;;;;5109922;28;20724;-86
2021/05/24 05:41:58;;;;;;;3.83;2.78;;;;;;;;;;5091639;28;20385;-83
2021/05/24 05:44:24;;;;;;;2.83;2.50;;;;;;;;;;5110372;28;20402;-88
2021/05/24 05:46:50;;;;;;;3.38;2.60;;;;;;;;;;5110261;28;20413;-82
2021/05/24 05:49:16;;;;;;;2.97;2.53;;;;;;;;;;5110256;28;20363;-86
2021/05/24 05:51:42;;;;;;;3.17;2.53;;;;;;;;;;5110287;28;20379;-83
2021/05/24 05:54:08;;;;;;;3.20;2.60;;;;;;;;;;5110097;28;20401;-83
2021/05/24 05:56:34;;;;;;;4.97;2.40;;;;;;;;;;5091629;28;20840;-91
2021/05/24 05:59:00;;;;;;;3.75;2.35;;;;;;;;;;5091732;28;20422;-83
2021/05/24 06:01:26;;;;;;;3.40;2.25;;;;;;;;;;5109847;28;20370;-85
2021/05/24 06:03:52;;;;;;;3.33;2.00;;;;;;;;;;5091807;28;20470;-87
2021/05/24 06:06:19;;;;;;;3.83;1.97;;;;;;;;;;5109734;28;20468;-88
2021/05/24 06:08:45;;;;;;;2.38;1.90;;;;;;;;;;5091408;28;20457;-89
2021/05/24 06:11:11;;;;;;;3.15;1.90;;;;;;;;;;5109982;28;20913;-87
2021/05/24 06:13:37;;;;;;;2.00;1.70;;;;;;;;;;5092087;28;20497;-87
2021/05/24 06:16:03;;;;;;;4.75;1.90;;;;;;;;;;5113905;28;20457;-84
2021/05/24 06:18:29;;;;;;;2.50;1.80;;;;;;;;;;5113855;28;20412;-85
2021/05/24 06:20:55;;;;;;;2.95;2.20;;;;;;;;;;5114140;28;20391;-85
2021/05/24 06:23:21;;;;;;;2.78;1.70;;;;;;;;;;5095603;28;20371;-85
2021/05/24 06:25:47;;;;;;;2.50;1.50;;;;;;;;;;5095479;28;20375;-86
2021/05/24 06:28:13;;;;;;;3.25;1.70;;;;;;;;;;5095682;28;20370;-80
2021/05/24 06:30:39;;;;;;;2.60;1.80;;;;;;;;;;5095378;28;20424;-83
2021/05/24 06:33:05;;;;;;;3.47;1.92;;;;;;;;;;5113768;28;20391;-86
2021/05/24 06:35:32;;;;;;;3.45;1.42;;;;;;;;;;5113793;28;20359;-86
2021/05/24 06:37:58;;;;;;;1.92;1.38;;;;;;;;;;5113829;28;20454;-83
2021/05/24 06:40:24;;;;;;;2.33;1.35;;;;;;;;;;5113293;28;20404;-83
2021/05/24 06:42:50;;;;;;;2.53;1.37;;;;;;;;;;5113065;28;20394;-82
2021/05/24 06:45:19;;;;;;;2.08;1.30;;;;;;;;;;5095103;28;20460;-80
2021/05/24 06:47:45;;;;;;;2.40;1.30;;;;;;;;;;5089948;28;20520;-87
2021/05/24 06:50:11;;;;;;;2.88;1.52;;;;;;;;;;5113219;28;20461;-82
2021/05/24 06:52:37;;;;;;;2.13;1.20;;;;;;;;;;5112229;28;20417;-84
2021/05/24 06:55:04;;;;;;;2.70;1.20;;;;;;;;;;5109169;28;20511;-82
2021/05/24 06:57:30;;;;;;;2.37;1.40;;;;;;;;;;5114821;27;20851;-85
2021/05/24 06:59:56;;;;;;;2.53;1.20;;;;;;;;;;5133326;27;20916;-83
2021/05/24 07:02:23;;;;;;;3.47;1.25;;;;;;;;;;5132763;27;20401;-81
2021/05/24 07:04:49;;;;;;;1.50;1.00;;;;;;;;;;5126919;27;20740;-82
2021/05/24 07:07:15;;;;;;;1.83;1.27;;;;;;;;;;5111862;28;20801;-83
2021/05/24 07:09:41;;;;;;;2.53;1.27;;;;;;;;;;5112312;28;20473;-84
2021/05/24 07:12:08;;;;;;;3.38;1.30;;;;;;;;;;5111960;28;20370;-80
2021/05/24 07:14:34;;;;;;;2.40;1.30;;;;;;;;;;5112228;28;20378;-87
2021/05/24 07:17:00;;;;;;;4.10;1.20;;;;;;;;;;5092909;28;20387;-82
2021/05/24 07:19:26;;;;;;;1.98;1.00;;;;;;;;;;5093408;28;20486;-82
2021/05/24 07:21:55;;;;;;;3.22;1.30;;;;;;;;;;5091724;28;20383;-82
2021/05/24 07:24:21;;;;;;;2.30;1.13;;;;;;;;;;5093341;28;20681;-84
2021/05/24 07:26:49;;;;;;;2.33;1.10;;;;;;;;;;5105178;28;20869;-83
2021/05/24 07:29:15;;;;;;;1.97;1.23;;;;;;;;;;5093385;28;20378;-87
2021/05/24 07:31:41;;;;;;;3.67;1.33;;;;;;;;;;5104697;28;20392;-84
2021/05/24 07:34:07;;;;;;;2.03;1.20;;;;;;;;;;5105521;28;20403;-80
2021/05/24 07:36:32;;;;;;;2.90;1.10;;;;;;;;;;5096641;28;20900;-83
2021/05/24 07:38:58;;;;;;;2.37;1.17;;;;;;;;;;5116241;28;20381;-83
2021/05/24 07:41:24;;;;;;;1.50;0.90;;;;;;;;;;5116345;28;20404;-81
2021/05/24 07:43:50;;;;;;;2.03;1.00;;;;;;;;;;5113423;28;20363;-85
2021/05/24 07:46:17;;;;;;;1.48;1.10;;;;;;;;;;5111135;28;20864;-83
2021/05/24 07:48:43;;;;;;;3.75;1.20;;;;;;;;;;5086409;28;20389;-81
2021/05/24 07:51:10;;;;;;;4.40;1.10;;;;;;;;;;5094532;28;20404;-83
2021/05/24 07:53:36;;;;;;;1.37;1.00;;;;;;;;;;5091475;28;20400;-85
2021/05/24 07:56:02;;;;;;;2.67;1.00;;;;;;;;;;5085192;28;20386;-84
2021/05/24 07:58:30;;;;;;;2.55;1.13;;;;;;;;;;5092792;28;20999;-80
2021/05/24 08:00:56;;;;;;;2.35;1.15;;;;;;;;;;5108531;28;20429;-81
2021/05/24 08:03:22;;;;;;;2.30;1.00;;;;;;;;;;5100098;28;20489;-82
2021/05/24 08:05:47;;;;;;;2.03;0.80;;;;;;;;;;5110905;28;20375;-81
2021/05/24 08:08:13;;;;;;;2.45;1.10;;;;;;;;;;5097236;28;20815;-85
2021/05/24 08:10:39;;;;;;;2.65;0.90;;;;;;;;;;5090686;28;20372;-83
2021/05/24 08:13:05;;;;;;;3.10;0.95;;;;;;;;;;5072802;28;20411;-84
2021/05/24 08:15:33;;;;;;;2.53;1.10;;;;;;;;;;5097453;28;20392;-84
2021/05/24 08:18:01;;;;;;;2.17;1.08;;;;;;;;;;5092331;28;20378;-87
2021/05/24 08:20:27;;;;;;;3.72;0.98;;;;;;;;;;5110008;28;20507;-80
2021/05/24 08:22:53;;;;;;;1.73;0.90;;;;;;;;;;5105375;28;20426;-84
2021/05/24 08:25:19;;;;;;;3.75;1.20;;;;;;;;;;5107990;28;20386;-81
2021/05/24 08:27:45;;;;;;;1.95;0.90;;;;;;;;;;5090868;28;20380;-86
2021/05/24 08:30:12;;;;;;;3.35;1.10;;;;;;;;;;5080240;28;20800;-80
2021/05/24 08:32:38;;;;;;;2.03;0.90;;;;;;;;;;5085957;28;20743;-84
2021/05/24 08:35:06;;;;;;;2.13;1.03;;;;;;;;;;5096970;28;20388;-83
2021/05/24 08:37:32;;;;;;;5.67;1.33;;;;;;;;;;5097353;28;20812;-85
2021/05/24 08:39:58;;;;;;;2.53;1.05;;;;;;;;;;5083236;28;20479;-83
2021/05/24 08:42:28;;;;;;;1.80;0.93;;;;;;;;;;5079297;28;20386;-82
2021/05/24 08:44:56;;;;;;;3.22;1.00;;;;;;;;;;5092723;28;20381;-87
2021/05/24 08:47:22;;;;;;;3.13;1.05;;;;;;;;;;5096000;28;20851;-83
2021/05/24 08:49:48;;;;;;;1.88;1.00;;;;;;;;;;5097203;28;20383;-84
2021/05/24 08:52:14;;;;;;;2.58;0.90;;;;;;;;;;5091973;28;20884;-83
2021/05/24 08:54:40;;;;;;;1.43;0.80;;;;;;;;;;5110206;28;20383;-86
2021/05/24 08:57:07;;;;;;;2.53;0.90;;;;;;;;;;5111071;28;20359;-83
2021/05/24 08:59:34;;;;;;;11.85;9.35;;;;;;;;;;5097147;28;20866;-87
2021/05/24 09:02:00;;;;;;;6.30;5.53;;;;;;;;;;5109596;28;20737;-84
2021/05/24 09:04:47;;;;;;;6.90;4.45;;;;;;;;;;5109522;28;20381;-83
2021/05/24 09:07:13;;;;;;;5.47;1.20;;;;;;;;;;5095943;28;20384;-87
2021/05/24 09:09:40;;;;;;;2.90;1.02;;;;;;;;;;5083244;28;20432;-86
2021/05/24 09:12:20;;;;;;;2.17;0.85;;;;;;;;;;5104438;28;20419;-82
2021/05/24 09:14:55;;;;;;;2.60;0.93;;;;;;;;;;5104204;28;20382;-83
2021/05/24 09:17:21;;;;;;;1.90;0.90;;;;;;;;;;5102055;28;20409;-81
2021/05/24 09:19:47;;;;;;;2.50;0.80;;;;;;;;;;5090462;28;20389;-77
2021/05/24 09:22:13;;;;;;;1.20;1.02;;;;;;;;;;5109234;28;20871;-85
2021/05/24 09:24:40;;;;;;;3.47;1.00;;;;;;;;;;5108748;28;20540;-81
2021/05/24 09:27:24;;;;;;;1.80;0.68;;;;;;;;;;5088877;28;20468;-82
2021/05/24 09:29:54;;;;;;;2.35;0.90;;;;;;;;;;5096111;28;20421;-84
2021/05/24 09:32:21;;;;;;;3.03;0.90;;;;;;;;;;5109869;28;20391;-82
2021/05/24 09:34:48;;;;;;;1.27;0.60;;;;;;;;;;5092914;28;20376;-81
2021/05/24 09:37:15;;;;;;;2.10;0.90;;;;;;;;;;5089016;28;20379;-82
2021/05/24 09:39:41;;;;;;;2.10;0.88;;;;;;;;;;5090791;28;20396;-79
2021/05/24 09:42:12;;;;;;;1.35;0.70;;;;;;;;;;5089779;28;20367;-84
2021/05/24 09:44:50;;;;;;;4.05;0.90;;;;;;;;;;5103019;27;20471;-80
2021/05/24 09:47:31;;;;;;;1.58;0.80;;;;;;;;;;5091279;28;20471;-83
2021/05/24 09:50:06;;;;;;;2.45;1.20;;;;;;;;;;5097337;27;20717;-81
2021/05/24 09:52:36;;;;;;;14.60;11.98;;;;;;;;;;5094979;27;20398;-82
2021/05/24 09:55:15;;;;;;;9.35;6.25;;;;;;;;;;5084881;28;20398;-83
2021/05/24 09:58:13;;;;;;;4.82;3.25;;;;;;;;;;5101463;28;22107;-81
2021/05/24 10:00:42;;;;;;;4.63;2.90;;;;;;;;;;5041199;28;20387;-80
2021/05/24 10:03:11;;;;;;;1.83;1.13;;;;;;;;;;5097120;28;20868;-85
2021/05/24 10:05:49;;;;;;;3.20;1.15;;;;;;;;;;5094845;28;20864;-84
2021/05/24 10:08:15;;;;;;;1.27;0.98;;;;;;;;;;5097212;28;20384;-80
2021/05/24 10:10:43;;;;;;;2.13;0.98;;;;;;;;;;5093469;28;20734;-83
2021/05/24 10:13:09;;;;;;;1.45;0.70;;;;;;;;;;5084850;28;20428;-80
2021/05/24 10:15:40;;;;;;;2.95;1.27;;;;;;;;;;5076096;28;20399;-83
2021/05/24 10:18:06;;;;;;;2.38;0.90;;;;;;;;;;5102614;28;20521;-81
2021/05/24 10:20:34;;;;;;;2.88;1.05;;;;;;;;;;5084059;28;20387;-79
2021/05/24 10:23:01;;;;;;;2.63;0.90;;;;;;;;;;5094132;28;20373;-85
2021/05/24 10:25:27;;;;;;;2.70;0.85;;;;;;;;;;5097562;28;20449;-81
2021/05/24 10:27:53;;;;;;;1.53;0.70;;;;;;;;;;5082791;28;20367;-80
2021/05/24 10:30:20;;;;;;;2.67;0.70;;;;;;;;;;5092465;28;20929;-81
2021/05/24 10:32:56;;;;;;;2.08;0.93;;;;;;;;;;5094467;28;20420;-85
2021/05/24 10:35:42;;;;;;;1.15;0.63;;;;;;;;;;5093449;28;20388;-81
2021/05/24 10:38:27;;;;;;;3.80;0.80;;;;;;;;;;5098326;28;20423;-81
2021/05/24 10:41:01;;;;;;;1.10;0.70;;;;;;;;;;5094244;28;20388;-82
2021/05/24 10:43:38;;;;;;;1.42;0.63;;;;;;;;;;5105471;28;20382;-84
2021/05/24 10:46:23;;;;;;;2.47;0.73;;;;;;;;;;5106226;28;20378;-83
2021/05/24 10:48:54;;;;;;;3.53;0.88;;;;;;;;;;5106285;28;20367;-83
2021/05/24 10:51:20;;;;;;;5.13;1.13;;;;;;;;;;5087644;28;20388;-83
2021/05/24 10:53:51;;;;;;;1.97;0.80;;;;;;;;;;5099471;28;20420;-81
2021/05/24 10:56:18;;;;;;;1.05;0.82;;;;;;;;;;5085133;28;20798;-80
2021/05/24 10:58:44;;;;;;;2.20;0.80;;;;;;;;;;5105737;28;20367;-82
2021/05/24 11:01:11;;;;;;;2.97;1.23;;;;;;;;;;5104620;28;20383;-80
2021/05/24 11:03:42;;;;;;;3.30;0.87;;;;;;;;;;5111389;27;20398;-83
2021/05/24 11:06:08;;;;;;;4.45;0.85;;;;;;;;;;5103253;28;20384;-84
2021/05/24 11:08:36;;;;;;;1.45;0.80;;;;;;;;;;5091332;28;20384;-82
2021/05/24 11:11:17;;;;;;;1.20;0.77;;;;;;;;;;5098979;28;20389;-80
2021/05/24 11:14:02;;;;;;;1.73;0.70;;;;;;;;;;5111334;28;20422;-80
2021/05/24 11:16:28;;;;;;;2.28;0.70;;;;;;;;;;5110301;28;20389;-83
2021/05/24 11:19:08;;;;;;;4.05;0.88;;;;;;;;;;5110714;28;20386;-77
2021/05/24 11:21:34;;;;;;;0.82;0.68;;;;;;;;;;5110045;27;20469;-81
2021/05/24 11:26:32;;;;;;;4.38;0.90;;;;;;;;;;5110984;28;20375;-83
2021/05/24 11:29:07;;;;;;;2.88;0.65;;;;;;;;;;5107968;28;20440;-81
2021/05/24 11:31:36;;;;;;;2.47;0.68;;;;;;;;;;5111268;28;20469;-80
2021/05/24 11:34:07;;;;;;;2.93;0.90;;;;;;;;;;5110841;28;20471;-81
2021/05/24 11:36:40;;;;;;;7.73;1.17;;;;;;;;;;5093387;28;20432;-80
2021/05/24 11:39:06;;;;;;;3.30;0.90;;;;;;;;;;5110532;28;20999;-86
2021/05/24 11:41:32;;;;;;;3.05;0.80;;;;;;;;;;5111735;28;20359;-84
2021/05/24 11:44:00;;;;;;;1.30;0.60;;;;;;;;;;5109210;28;20415;-88
2021/05/24 11:46:26;;;;;;;1.90;1.10;;;;;;;;;;5111163;28;20382;-84
2021/05/24 11:48:53;;;;;;;1.83;1.10;;;;;;;;;;5108320;28;20428;-87
2021/05/24 11:51:32;;;;;;;1.42;0.70;;;;;;;;;;5092826;28;20386;-84
2021/05/24 11:54:03;;;;;;;1.40;0.73;;;;;;;;;;5088831;28;20417;-81
2021/05/24 11:56:40;;;;;;;1.35;0.70;;;;;;;;;;5111397;27;20371;-87
2021/05/24 11:59:07;;;;;;;1.85;0.57;;;;;;;;;;5109529;28;20383;-83
2021/05/24 12:01:34;;;;;;;3.60;1.00;;;;;;;;;;5111452;28;20375;-86
2021/05/24 12:04:04;;;;;;;2.45;0.80;;;;;;;;;;5109776;28;20458;-84
2021/05/24 12:06:39;;;;;;;2.27;0.93;;;;;;;;;;5109668;28;20378;-86
2021/05/24 12:09:05;;;;;;;2.97;0.90;;;;;;;;;;5108354;28;20394;-84
2021/05/24 12:11:33;;;;;;;5.10;1.02;;;;;;;;;;5109185;28;20374;-86
2021/05/24 12:14:01;;;;;;;3.47;1.17;;;;;;;;;;5108395;27;20678;-81
2021/05/24 12:16:27;;;;;;;2.83;1.00;;;;;;;;;;5109884;27;20367;-83
2021/05/24 12:18:54;;;;;;;5.28;1.13;;;;;;;;;;5089798;28;20390;-83
2021/05/24 12:21:34;;;;;;;1.70;0.90;;;;;;;;;;5090626;28;20413;-85
2021/05/24 12:24:01;;;;;;;2.40;0.88;;;;;;;;;;5107606;28;20375;-81
2021/05/24 12:26:27;;;;;;;1.80;0.80;;;;;;;;;;5110005;28;20371;-83
2021/05/24 12:28:53;;;;;;;1.48;0.80;;;;;;;;;;5092475;28;20396;-86
2021/05/24 12:31:20;;;;;;;1.42;0.65;;;;;;;;;;5111736;28;20371;-82
2021/05/24 12:33:47;;;;;;;6.00;1.10;;;;;;;;;;5118271;28;21069;-77
2021/05/24 12:36:20;;;;;;;1.50;0.70;;;;;;;;;;5120081;27;20374;-78
2021/05/24 12:38:55;;;;;;;1.73;0.80;;;;;;;;;;5101346;28;20367;-79
2021/05/24 12:41:22;;;;;;;4.43;1.15;;;;;;;;;;5116613;28;20381;-80
2021/05/24 12:43:58;;;;;;;3.30;0.70;;;;;;;;;;5110476;28;20377;-80
2021/05/24 12:46:24;;;;;;;2.08;0.73;;;;;;;;;;5109357;27;20492;-85
2021/05/24 12:48:52;;;;;;;2.43;1.07;;;;;;;;;;5091132;28;20366;-82
2021/05/24 12:51:24;;;;;;;3.00;1.00;;;;;;;;;;5111660;28;21005;-83
2021/05/24 12:54:00;;;;;;;1.98;0.75;;;;;;;;;;5112236;28;20399;-81
2021/05/24 12:56:40;;;;;;;2.90;0.77;;;;;;;;;;5090550;28;20384;-85
2021/05/24 12:59:16;;;;;;;2.75;0.98;;;;;;;;;;5100060;28;20359;-80
2021/05/24 13:01:43;;;;;;;2.07;0.80;;;;;;;;;;5090007;28;20461;-84
2021/05/24 13:04:09;;;;;;;1.57;0.93;;;;;;;;;;5106970;28;20385;-81
2021/05/24 13:06:49;;;;;;;2.30;0.80;;;;;;;;;;5091437;28;20386;-80
2021/05/24 13:09:22;;;;;;;3.70;0.90;;;;;;;;;;5108029;28;20393;-82
2021/05/24 13:11:56;;;;;;;2.55;0.90;;;;;;;;;;5088354;28;20943;-78
2021/05/24 13:14:34;;;;;;;2.22;0.90;;;;;;;;;;5108173;28;20732;-80
2021/05/24 13:20:18;;;;;;;4.88;0.73;;;;;;;;;;5108888;28;20393;-84
2021/05/24 13:30:37;;;;;;;5.40;1.02;;;;;;;;;;5107095;28;20413;-83
2021/05/24 13:33:23;;;;;;;2.78;0.80;;;;;;;;;;5109613;28;20402;-80
2021/05/24 13:35:49;;;;;;;1.45;0.82;;;;;;;;;;5107587;28;20379;-82
2021/05/24 13:38:15;;;;;;;1.37;0.80;;;;;;;;;;5089572;28;20884;-82
2021/05/24 13:40:41;;;;;;;1.58;0.80;;;;;;;;;;5107878;28;20756;-82
2021/05/24 13:43:07;;;;;;;2.40;0.80;;;;;;;;;;5110423;27;20715;-83
2021/05/24 13:45:33;;;;;;;2.08;0.80;;;;;;;;;;5087341;28;21042;-81
2021/05/24 13:47:59;;;;;;;2.47;0.82;;;;;;;;;;5106802;27;20369;-84
2021/05/24 13:50:26;;;;;;;4.38;0.90;;;;;;;;;;5123200;27;20515;-83
2021/05/24 13:52:52;;;;;;;1.80;0.75;;;;;;;;;;5109253;28;20391;-83
2021/05/24 13:55:18;;;;;;;1.55;0.70;;;;;;;;;;5086522;28;20369;-81
2021/05/24 13:57:45;;;;;;;6.70;0.70;;;;;;;;;;5098116;28;20375;-79
2021/05/24 14:00:12;;;;;;;1.48;0.60;;;;;;;;;;5105777;28;20456;-81
2021/05/24 14:02:38;;;;;;;1.08;0.70;;;;;;;;;;5109887;27;20389;-79
2021/05/24 14:05:06;;;;;;;1.48;0.80;;;;;;;;;;5109003;27;20551;-82
2021/05/24 14:07:32;;;;;;;2.83;0.88;;;;;;;;;;5105551;28;20461;-85
2021/05/24 14:09:58;;;;;;;2.97;0.70;;;;;;;;;;5099930;28;20562;-83
2021/05/24 14:12:24;;;;;;;2.85;0.60;;;;;;;;;;5084987;28;20379;-82
2021/05/24 14:14:50;;;;;;;1.53;0.70;;;;;;;;;;5112209;28;20387;-86
2021/05/24 14:17:16;;;;;;;1.40;0.60;;;;;;;;;;5104134;28;20414;-80
2021/05/24 14:19:43;;;;;;;1.00;0.70;;;;;;;;;;5110005;28;20903;-87
2021/05/24 14:22:11;;;;;;;0.80;0.70;;;;;;;;;;5093034;28;20733;-79
2021/05/24 14:24:37;;;;;;;2.88;0.80;;;;;;;;;;5112855;28;20371;-85
2021/05/24 14:27:03;;;;;;;2.92;0.90;;;;;;;;;;5108721;28;20504;-85
2021/05/24 14:29:33;;;;;;;1.00;0.80;;;;;;;;;;5109399;28;20926;-84
2021/05/24 14:32:01;;;;;;;2.70;0.75;;;;;;;;;;5108959;28;20401;-84
2021/05/24 14:34:29;;;;;;;3.70;0.90;;;;;;;;;;5109537;28;20544;-82
2021/05/24 14:36:55;;;;;;;2.07;0.67;;;;;;;;;;5111995;28;20376;-88
2021/05/24 14:39:29;;;;;;;1.90;0.80;;;;;;;;;;5104659;28;20372;-83
2021/05/24 14:41:55;;;;;;;1.10;0.80;;;;;;;;;;5093741;28;20382;-83
2021/05/24 14:44:21;;;;;;;2.80;0.70;;;;;;;;;;5111950;28;20891;-81
2021/05/24 14:46:46;;;;;;;13.57;1.43;;;;;;;;;;5094486;28;20461;-83
2021/05/24 14:49:12;;;;;;;2.08;0.70;;;;;;;;;;5111462;28;20354;-91
2021/05/24 14:51:42;;;;;;;1.13;0.70;;;;;;;;;;5111884;28;20393;-87
2021/05/24 14:54:09;;;;;;;3.53;0.80;;;;;;;;;;5112358;28;20858;-80
2021/05/24 14:56:35;;;;;;;2.33;0.93;;;;;;;;;;5112499;28;20378;-85